sensor_id;sensor_type;location;lat;lon;timestamp;P1;durP1;ratioP1;P2;durP2;ratioP2
2225;SDS011;1119;48.288;8.726;2023-08-31T00:00:42;19.57;;;3.13;;
2225;SDS011;1119;48.288;8.726;2023-08-31T00:03:09;19.87;;;3.90;;
2225;SDS011;1119;48.288;8.726;2023-08-31T00:05:37;19.70;;;3.70;;
2225;SDS011;1119;48.288;8.726;2023-08-31T00:08:06;19.70;;;3.70;;
2225;SDS011;1119;48.288;8.726;2023-08-31T00:10:34;19.77;;;3.60;;
2225;SDS011;1119;48.288;8.726;2023-08-31T00:13:01;19.77;;;3.60;;
2225;SDS011;1119;48.288;8.726;2023-08-31T00:15:29;19.67;;;3.47;;
2225;SDS011;1119;48.288;8.726;2023-08-31T00:17:59;19.73;;;3.60;;
2225;SDS011;1119;48.288;8.726;2023-08-31T00:20:29;19.60;;;3.40;;
2225;SDS011;1119;48.288;8.726;2023-08-31T00:22:58;19.57;;;3.33;;
2225;SDS011;1119;48.288;8.726;2023-08-31T00:25:25;19.80;;;4.07;;
2225;SDS011;1119;48.288;8.726;2023-08-31T00:27:56;19.80;;;3.77;;
2225;SDS011;1119;48.288;8.726;2023-08-31T00:30:29;19.80;;;3.77;;
2225;SDS011;1119;48.288;8.726;2023-08-31T00:32:57;19.80;;;3.50;;
2225;SDS011;1119;48.288;8.726;2023-08-31T00:35:27;19.87;;;3.87;;
2225;SDS011;1119;48.288;8.726;2023-08-31T00:37:56;19.90;;;4.30;;
2225;SDS011;1119;48.288;8.726;2023-08-31T00:40:24;19.70;;;3.60;;
2225;SDS011;1119;48.288;8.726;2023-08-31T00:42:51;19.83;;;3.67;;
2225;SDS011;1119;48.288;8.726;2023-08-31T00:45:19;19.70;;;3.33;;
2225;SDS011;1119;48.288;8.726;2023-08-31T00:47:48;19.80;;;3.67;;
2225;SDS011;1119;48.288;8.726;2023-08-31T00:50:17;19.97;;;3.60;;
2225;SDS011;1119;48.288;8.726;2023-08-31T00:52:45;19.77;;;3.20;;
2225;SDS011;1119;48.288;8.726;2023-08-31T00:55:13;19.80;;;3.57;;
2225;SDS011;1119;48.288;8.726;2023-08-31T00:57:43;19.70;;;3.33;;
2225;SDS011;1119;48.288;8.726;2023-08-31T01:00:11;19.77;;;3.27;;
2225;SDS011;1119;48.288;8.726;2023-08-31T01:02:41;19.83;;;3.70;;
2225;SDS011;1119;48.288;8.726;2023-08-31T01:05:24;19.80;;;3.60;;
2225;SDS011;1119;48.288;8.726;2023-08-31T01:08:03;19.87;;;3.37;;
2225;SDS011;1119;48.288;8.726;2023-08-31T01:10:43;19.70;;;3.20;;
2225;SDS011;1119;48.288;8.726;2023-08-31T01:13:25;19.63;;;2.97;;
2225;SDS011;1119;48.288;8.726;2023-08-31T01:15:59;19.77;;;3.57;;
2225;SDS011;1119;48.288;8.726;2023-08-31T01:18:30;19.73;;;3.20;;
2225;SDS011;1119;48.288;8.726;2023-08-31T01:21:05;19.83;;;3.73;;
2225;SDS011;1119;48.288;8.726;2023-08-31T01:26:30;19.70;;;3.20;;
2225;SDS011;1119;48.288;8.726;2023-08-31T01:28:59;19.57;;;3.20;;
2225;SDS011;1119;48.288;8.726;2023-08-31T01:31:26;19.80;;;3.40;;
2225;SDS011;1119;48.288;8.726;2023-08-31T01:33:54;19.67;;;2.97;;
2225;SDS011;1119;48.288;8.726;2023-08-31T01:36:23;19.73;;;3.17;;
2225;SDS011;1119;48.288;8.726;2023-08-31T01:38:57;19.83;;;3.67;;
2225;SDS011;1119;48.288;8.726;2023-08-31T01:41:37;19.73;;;3.40;;
2225;SDS011;1119;48.288;8.726;2023-08-31T01:44:11;19.70;;;3.43;;
2225;SDS011;1119;48.288;8.726;2023-08-31T01:46:45;19.67;;;3.30;;
2225;SDS011;1119;48.288;8.726;2023-08-31T01:49:13;19.47;;;2.97;;
2225;SDS011;1119;48.288;8.726;2023-08-31T01:51:40;19.60;;;3.50;;
2225;SDS011;1119;48.288;8.726;2023-08-31T01:54:09;19.70;;;3.27;;
2225;SDS011;1119;48.288;8.726;2023-08-31T01:56:37;19.60;;;3.13;;
2225;SDS011;1119;48.288;8.726;2023-08-31T01:59:05;19.67;;;3.60;;
2225;SDS011;1119;48.288;8.726;2023-08-31T02:01:32;19.80;;;3.50;;
2225;SDS011;1119;48.288;8.726;2023-08-31T02:04:00;19.60;;;3.50;;
2225;SDS011;1119;48.288;8.726;2023-08-31T02:06:27;19.77;;;3.40;;
2225;SDS011;1119;48.288;8.726;2023-08-31T02:08:54;19.47;;;2.97;;
2225;SDS011;1119;48.288;8.726;2023-08-31T02:11:23;19.63;;;3.03;;
2225;SDS011;1119;48.288;8.726;2023-08-31T02:13:54;19.57;;;2.93;;
2225;SDS011;1119;48.288;8.726;2023-08-31T02:16:22;19.30;;;2.70;;
2225;SDS011;1119;48.288;8.726;2023-08-31T02:18:49;19.60;;;3.10;;
2225;SDS011;1119;48.288;8.726;2023-08-31T02:21:17;19.73;;;3.50;;
2225;SDS011;1119;48.288;8.726;2023-08-31T02:23:45;19.50;;;2.83;;
2225;SDS011;1119;48.288;8.726;2023-08-31T02:26:12;19.67;;;2.90;;
2225;SDS011;1119;48.288;8.726;2023-08-31T02:28:41;19.60;;;3.10;;
2225;SDS011;1119;48.288;8.726;2023-08-31T02:31:09;19.67;;;3.13;;
2225;SDS011;1119;48.288;8.726;2023-08-31T02:33:37;19.80;;;3.30;;
2225;SDS011;1119;48.288;8.726;2023-08-31T02:36:04;19.63;;;3.33;;
2225;SDS011;1119;48.288;8.726;2023-08-31T02:38:32;19.70;;;3.30;;
2225;SDS011;1119;48.288;8.726;2023-08-31T02:40:59;19.77;;;3.37;;
2225;SDS011;1119;48.288;8.726;2023-08-31T02:43:28;19.80;;;3.20;;
2225;SDS011;1119;48.288;8.726;2023-08-31T02:46:00;19.70;;;3.40;;
2225;SDS011;1119;48.288;8.726;2023-08-31T02:48:29;19.70;;;3.23;;
2225;SDS011;1119;48.288;8.726;2023-08-31T02:50:56;19.77;;;2.93;;
2225;SDS011;1119;48.288;8.726;2023-08-31T02:53:26;19.77;;;2.83;;
2225;SDS011;1119;48.288;8.726;2023-08-31T02:55:53;19.87;;;3.40;;
2225;SDS011;1119;48.288;8.726;2023-08-31T02:58:21;19.53;;;2.77;;
2225;SDS011;1119;48.288;8.726;2023-08-31T03:00:48;19.73;;;3.27;;
2225;SDS011;1119;48.288;8.726;2023-08-31T03:03:17;19.53;;;2.80;;
2225;SDS011;1119;48.288;8.726;2023-08-31T03:05:45;19.77;;;3.20;;
2225;SDS011;1119;48.288;8.726;2023-08-31T03:08:13;19.57;;;2.83;;
2225;SDS011;1119;48.288;8.726;2023-08-31T03:10:40;19.73;;;3.10;;
2225;SDS011;1119;48.288;8.726;2023-08-31T03:13:08;19.60;;;3.00;;
2225;SDS011;1119;48.288;8.726;2023-08-31T03:15:37;19.60;;;3.20;;
2225;SDS011;1119;48.288;8.726;2023-08-31T03:18:05;19.77;;;3.27;;
2225;SDS011;1119;48.288;8.726;2023-08-31T03:20:34;19.57;;;3.30;;
2225;SDS011;1119;48.288;8.726;2023-08-31T03:23:01;19.70;;;3.40;;
2225;SDS011;1119;48.288;8.726;2023-08-31T03:25:29;19.67;;;3.37;;
2225;SDS011;1119;48.288;8.726;2023-08-31T03:27:56;19.63;;;3.13;;
2225;SDS011;1119;48.288;8.726;2023-08-31T03:30:23;19.60;;;3.10;;
2225;SDS011;1119;48.288;8.726;2023-08-31T03:32:51;19.53;;;3.10;;
2225;SDS011;1119;48.288;8.726;2023-08-31T03:35:18;19.70;;;3.40;;
2225;SDS011;1119;48.288;8.726;2023-08-31T03:37:48;19.60;;;3.37;;
2225;SDS011;1119;48.288;8.726;2023-08-31T03:40:15;19.70;;;3.60;;
2225;SDS011;1119;48.288;8.726;2023-08-31T03:42:43;19.60;;;3.27;;
2225;SDS011;1119;48.288;8.726;2023-08-31T03:45:11;19.60;;;3.03;;
2225;SDS011;1119;48.288;8.726;2023-08-31T03:47:38;19.57;;;3.23;;
2225;SDS011;1119;48.288;8.726;2023-08-31T03:50:06;19.40;;;3.20;;
2225;SDS011;1119;48.288;8.726;2023-08-31T03:52:34;19.67;;;3.30;;
2225;SDS011;1119;48.288;8.726;2023-08-31T03:55:03;19.60;;;3.13;;
2225;SDS011;1119;48.288;8.726;2023-08-31T03:57:32;19.77;;;3.50;;
2225;SDS011;1119;48.288;8.726;2023-08-31T04:00:09;19.50;;;3.13;;
2225;SDS011;1119;48.288;8.726;2023-08-31T04:02:41;19.40;;;2.97;;
2225;SDS011;1119;48.288;8.726;2023-08-31T04:05:10;19.60;;;3.10;;
2225;SDS011;1119;48.288;8.726;2023-08-31T04:07:42;19.53;;;2.93;;
2225;SDS011;1119;48.288;8.726;2023-08-31T04:10:11;19.47;;;2.83;;
2225;SDS011;1119;48.288;8.726;2023-08-31T04:12:38;19.50;;;3.33;;
2225;SDS011;1119;48.288;8.726;2023-08-31T04:15:08;19.70;;;3.50;;
2225;SDS011;1119;48.288;8.726;2023-08-31T04:17:36;19.60;;;3.40;;
2225;SDS011;1119;48.288;8.726;2023-08-31T04:20:04;19.53;;;3.40;;
2225;SDS011;1119;48.288;8.726;2023-08-31T04:22:34;19.70;;;3.47;;
2225;SDS011;1119;48.288;8.726;2023-08-31T04:25:01;19.50;;;3.30;;
2225;SDS011;1119;48.288;8.726;2023-08-31T04:27:30;19.53;;;3.10;;
2225;SDS011;1119;48.288;8.726;2023-08-31T04:29:58;19.70;;;3.80;;
2225;SDS011;1119;48.288;8.726;2023-08-31T04:32:28;19.53;;;3.30;;
2225;SDS011;1119;48.288;8.726;2023-08-31T04:34:56;19.60;;;3.50;;
2225;SDS011;1119;48.288;8.726;2023-08-31T04:37:23;19.80;;;4.20;;
2225;SDS011;1119;48.288;8.726;2023-08-31T04:39:51;19.70;;;3.90;;
2225;SDS011;1119;48.288;8.726;2023-08-31T04:42:18;19.70;;;3.57;;
2225;SDS011;1119;48.288;8.726;2023-08-31T04:44:47;19.70;;;3.80;;
2225;SDS011;1119;48.288;8.726;2023-08-31T04:47:14;19.80;;;4.10;;
2225;SDS011;1119;48.288;8.726;2023-08-31T04:49:42;19.53;;;3.33;;
2225;SDS011;1119;48.288;8.726;2023-08-31T04:52:09;19.60;;;3.33;;
2225;SDS011;1119;48.288;8.726;2023-08-31T04:54:37;19.67;;;3.50;;
2225;SDS011;1119;48.288;8.726;2023-08-31T04:57:04;19.63;;;3.80;;
2225;SDS011;1119;48.288;8.726;2023-08-31T04:59:32;19.53;;;3.23;;
2225;SDS011;1119;48.288;8.726;2023-08-31T05:02:01;19.67;;;3.50;;
2225;SDS011;1119;48.288;8.726;2023-08-31T05:04:29;19.60;;;3.57;;
2225;SDS011;1119;48.288;8.726;2023-08-31T05:06:56;19.50;;;3.40;;
2225;SDS011;1119;48.288;8.726;2023-08-31T05:09:24;19.63;;;3.50;;
2225;SDS011;1119;48.288;8.726;2023-08-31T05:11:52;19.70;;;3.53;;
2225;SDS011;1119;48.288;8.726;2023-08-31T05:14:19;19.50;;;3.43;;
2225;SDS011;1119;48.288;8.726;2023-08-31T05:16:47;19.63;;;3.77;;
2225;SDS011;1119;48.288;8.726;2023-08-31T05:19:15;19.70;;;3.70;;
2225;SDS011;1119;48.288;8.726;2023-08-31T05:21:43;19.67;;;3.60;;
2225;SDS011;1119;48.288;8.726;2023-08-31T05:24:10;19.77;;;4.00;;
2225;SDS011;1119;48.288;8.726;2023-08-31T05:26:38;19.73;;;3.50;;
2225;SDS011;1119;48.288;8.726;2023-08-31T05:29:06;19.50;;;3.10;;
2225;SDS011;1119;48.288;8.726;2023-08-31T05:31:33;19.60;;;3.37;;
2225;SDS011;1119;48.288;8.726;2023-08-31T05:34:01;19.60;;;3.40;;
2225;SDS011;1119;48.288;8.726;2023-08-31T05:36:30;19.67;;;3.30;;
2225;SDS011;1119;48.288;8.726;2023-08-31T05:38:57;19.70;;;3.50;;
2225;SDS011;1119;48.288;8.726;2023-08-31T05:41:24;19.60;;;3.33;;
2225;SDS011;1119;48.288;8.726;2023-08-31T05:43:52;19.60;;;3.40;;
2225;SDS011;1119;48.288;8.726;2023-08-31T05:46:19;19.50;;;3.37;;
2225;SDS011;1119;48.288;8.726;2023-08-31T05:48:47;19.60;;;3.53;;
2225;SDS011;1119;48.288;8.726;2023-08-31T05:51:14;19.57;;;3.30;;
2225;SDS011;1119;48.288;8.726;2023-08-31T05:53:43;19.40;;;2.63;;
2225;SDS011;1119;48.288;8.726;2023-08-31T05:56:10;19.40;;;2.47;;
2225;SDS011;1119;48.288;8.726;2023-08-31T05:58:38;19.37;;;2.60;;
2225;SDS011;1119;48.288;8.726;2023-08-31T06:01:05;19.50;;;2.70;;
2225;SDS011;1119;48.288;8.726;2023-08-31T06:03:32;19.27;;;2.77;;
2225;SDS011;1119;48.288;8.726;2023-08-31T06:06:01;19.20;;;3.23;;
2225;SDS011;1119;48.288;8.726;2023-08-31T06:08:29;19.10;;;2.97;;
2225;SDS011;1119;48.288;8.726;2023-08-31T06:10:58;19.00;;;2.47;;
2225;SDS011;1119;48.288;8.726;2023-08-31T06:13:25;19.03;;;2.60;;
2225;SDS011;1119;48.288;8.726;2023-08-31T06:15:53;19.27;;;3.17;;
2225;SDS011;1119;48.288;8.726;2023-08-31T06:18:23;19.30;;;2.93;;
2225;SDS011;1119;48.288;8.726;2023-08-31T06:20:50;19.20;;;2.87;;
2225;SDS011;1119;48.288;8.726;2023-08-31T06:23:18;19.20;;;2.80;;
2225;SDS011;1119;48.288;8.726;2023-08-31T06:25:45;19.17;;;2.90;;
2225;SDS011;1119;48.288;8.726;2023-08-31T06:28:14;19.20;;;2.87;;
2225;SDS011;1119;48.288;8.726;2023-08-31T06:30:41;19.33;;;3.30;;
2225;SDS011;1119;48.288;8.726;2023-08-31T06:33:11;19.10;;;3.20;;
2225;SDS011;1119;48.288;8.726;2023-08-31T06:35:39;19.20;;;3.10;;
2225;SDS011;1119;48.288;8.726;2023-08-31T06:38:06;19.23;;;3.00;;
2225;SDS011;1119;48.288;8.726;2023-08-31T06:40:34;19.20;;;3.30;;
2225;SDS011;1119;48.288;8.726;2023-08-31T06:43:01;19.30;;;3.30;;
2225;SDS011;1119;48.288;8.726;2023-08-31T06:45:30;19.30;;;3.20;;
2225;SDS011;1119;48.288;8.726;2023-08-31T06:47:57;19.33;;;3.00;;
2225;SDS011;1119;48.288;8.726;2023-08-31T06:50:25;19.40;;;3.17;;
2225;SDS011;1119;48.288;8.726;2023-08-31T06:52:52;19.20;;;2.70;;
2225;SDS011;1119;48.288;8.726;2023-08-31T06:55:19;19.30;;;3.17;;
2225;SDS011;1119;48.288;8.726;2023-08-31T06:57:47;19.20;;;2.60;;
2225;SDS011;1119;48.288;8.726;2023-08-31T07:00:14;19.30;;;3.20;;
2225;SDS011;1119;48.288;8.726;2023-08-31T07:02:45;19.33;;;3.00;;
2225;SDS011;1119;48.288;8.726;2023-08-31T07:05:11;19.33;;;3.10;;
2225;SDS011;1119;48.288;8.726;2023-08-31T07:07:38;19.03;;;2.83;;
2225;SDS011;1119;48.288;8.726;2023-08-31T07:10:06;19.47;;;3.30;;
2225;SDS011;1119;48.288;8.726;2023-08-31T07:12:34;19.47;;;3.57;;
2225;SDS011;1119;48.288;8.726;2023-08-31T07:15:01;19.43;;;3.33;;
2225;SDS011;1119;48.288;8.726;2023-08-31T07:17:30;19.13;;;2.87;;
2225;SDS011;1119;48.288;8.726;2023-08-31T07:19:58;19.37;;;3.20;;
2225;SDS011;1119;48.288;8.726;2023-08-31T07:22:26;19.30;;;3.10;;
2225;SDS011;1119;48.288;8.726;2023-08-31T07:24:53;19.43;;;3.00;;
2225;SDS011;1119;48.288;8.726;2023-08-31T07:27:20;19.40;;;3.30;;
2225;SDS011;1119;48.288;8.726;2023-08-31T07:29:48;19.30;;;2.93;;
2225;SDS011;1119;48.288;8.726;2023-08-31T07:32:15;19.30;;;2.93;;
2225;SDS011;1119;48.288;8.726;2023-08-31T07:34:43;19.30;;;2.60;;
2225;SDS011;1119;48.288;8.726;2023-08-31T07:37:13;19.20;;;2.63;;
2225;SDS011;1119;48.288;8.726;2023-08-31T07:39:40;19.27;;;3.20;;
2225;SDS011;1119;48.288;8.726;2023-08-31T07:42:08;19.20;;;2.83;;
2225;SDS011;1119;48.288;8.726;2023-08-31T07:44:35;19.00;;;3.00;;
2225;SDS011;1119;48.288;8.726;2023-08-31T07:47:02;19.30;;;3.40;;
2225;SDS011;1119;48.288;8.726;2023-08-31T07:49:30;19.30;;;3.10;;
2225;SDS011;1119;48.288;8.726;2023-08-31T07:51:58;19.27;;;2.93;;
2225;SDS011;1119;48.288;8.726;2023-08-31T07:54:26;19.50;;;3.00;;
2225;SDS011;1119;48.288;8.726;2023-08-31T07:56:54;19.53;;;3.20;;
2225;SDS011;1119;48.288;8.726;2023-08-31T07:59:21;19.40;;;2.93;;
2225;SDS011;1119;48.288;8.726;2023-08-31T08:01:49;19.10;;;3.30;;
2225;SDS011;1119;48.288;8.726;2023-08-31T08:04:16;19.47;;;3.30;;
2225;SDS011;1119;48.288;8.726;2023-08-31T08:06:45;19.50;;;2.90;;
2225;SDS011;1119;48.288;8.726;2023-08-31T08:09:12;19.30;;;3.30;;
2225;SDS011;1119;48.288;8.726;2023-08-31T08:11:42;19.70;;;2.83;;
2225;SDS011;1119;48.288;8.726;2023-08-31T08:14:09;19.93;;;3.00;;
2225;SDS011;1119;48.288;8.726;2023-08-31T08:16:36;19.90;;;3.17;;
2225;SDS011;1119;48.288;8.726;2023-08-31T08:19:05;19.87;;;2.80;;
2225;SDS011;1119;48.288;8.726;2023-08-31T08:21:33;20.03;;;3.17;;
2225;SDS011;1119;48.288;8.726;2023-08-31T08:24:01;19.87;;;3.07;;
2225;SDS011;1119;48.288;8.726;2023-08-31T08:26:28;19.70;;;2.80;;
2225;SDS011;1119;48.288;8.726;2023-08-31T08:28:57;19.77;;;2.77;;
2225;SDS011;1119;48.288;8.726;2023-08-31T08:31:25;19.97;;;2.87;;
2225;SDS011;1119;48.288;8.726;2023-08-31T08:33:52;19.90;;;3.20;;
2225;SDS011;1119;48.288;8.726;2023-08-31T08:36:19;19.90;;;2.90;;
2225;SDS011;1119;48.288;8.726;2023-08-31T08:38:47;19.93;;;3.23;;
2225;SDS011;1119;48.288;8.726;2023-08-31T08:41:14;19.80;;;2.90;;
2225;SDS011;1119;48.288;8.726;2023-08-31T08:43:44;19.97;;;2.80;;
2225;SDS011;1119;48.288;8.726;2023-08-31T08:46:16;19.80;;;2.97;;
2225;SDS011;1119;48.288;8.726;2023-08-31T08:48:43;19.90;;;3.00;;
2225;SDS011;1119;48.288;8.726;2023-08-31T08:51:13;19.70;;;2.80;;
2225;SDS011;1119;48.288;8.726;2023-08-31T08:53:41;19.97;;;3.10;;
2225;SDS011;1119;48.288;8.726;2023-08-31T08:56:10;19.80;;;2.70;;
2225;SDS011;1119;48.288;8.726;2023-08-31T08:58:37;19.90;;;2.90;;
2225;SDS011;1119;48.288;8.726;2023-08-31T09:01:05;19.83;;;2.70;;
2225;SDS011;1119;48.288;8.726;2023-08-31T09:03:35;19.90;;;2.73;;
2225;SDS011;1119;48.288;8.726;2023-08-31T09:06:02;19.93;;;2.67;;
2225;SDS011;1119;48.288;8.726;2023-08-31T09:08:33;19.80;;;2.63;;
2225;SDS011;1119;48.288;8.726;2023-08-31T09:11:02;20.10;;;3.03;;
2225;SDS011;1119;48.288;8.726;2023-08-31T09:13:30;20.00;;;3.40;;
2225;SDS011;1119;48.288;8.726;2023-08-31T09:15:59;20.07;;;3.10;;
2225;SDS011;1119;48.288;8.726;2023-08-31T09:18:27;20.00;;;3.10;;
2225;SDS011;1119;48.288;8.726;2023-08-31T09:21:00;19.93;;;2.70;;
2225;SDS011;1119;48.288;8.726;2023-08-31T09:23:27;19.97;;;2.90;;
2225;SDS011;1119;48.288;8.726;2023-08-31T09:25:55;19.97;;;3.07;;
2225;SDS011;1119;48.288;8.726;2023-08-31T09:28:23;19.73;;;2.80;;
2225;SDS011;1119;48.288;8.726;2023-08-31T09:30:52;19.93;;;2.90;;
2225;SDS011;1119;48.288;8.726;2023-08-31T09:33:30;19.90;;;3.00;;
2225;SDS011;1119;48.288;8.726;2023-08-31T09:35:59;19.80;;;2.60;;
2225;SDS011;1119;48.288;8.726;2023-08-31T09:38:29;19.90;;;2.90;;
2225;SDS011;1119;48.288;8.726;2023-08-31T09:41:02;19.77;;;2.97;;
2225;SDS011;1119;48.288;8.726;2023-08-31T09:43:32;19.90;;;2.80;;
2225;SDS011;1119;48.288;8.726;2023-08-31T09:46:00;19.70;;;2.20;;
2225;SDS011;1119;48.288;8.726;2023-08-31T09:48:29;19.77;;;2.90;;
2225;SDS011;1119;48.288;8.726;2023-08-31T09:50:57;19.90;;;2.90;;
2225;SDS011;1119;48.288;8.726;2023-08-31T09:53:26;19.90;;;2.90;;
2225;SDS011;1119;48.288;8.726;2023-08-31T09:55:56;19.97;;;2.93;;
2225;SDS011;1119;48.288;8.726;2023-08-31T09:58:24;20.00;;;3.30;;
2225;SDS011;1119;48.288;8.726;2023-08-31T10:00:52;20.00;;;3.00;;
2225;SDS011;1119;48.288;8.726;2023-08-31T10:03:20;19.97;;;2.70;;
2225;SDS011;1119;48.288;8.726;2023-08-31T10:05:47;20.10;;;3.20;;
2225;SDS011;1119;48.288;8.726;2023-08-31T10:08:17;19.93;;;2.90;;
2225;SDS011;1119;48.288;8.726;2023-08-31T10:10:45;20.10;;;3.00;;
2225;SDS011;1119;48.288;8.726;2023-08-31T10:13:13;20.00;;;2.90;;
2225;SDS011;1119;48.288;8.726;2023-08-31T10:15:41;19.90;;;2.90;;
2225;SDS011;1119;48.288;8.726;2023-08-31T10:18:10;19.70;;;2.77;;
2225;SDS011;1119;48.288;8.726;2023-08-31T10:20:39;19.90;;;2.77;;
2225;SDS011;1119;48.288;8.726;2023-08-31T10:23:10;19.97;;;3.30;;
2225;SDS011;1119;48.288;8.726;2023-08-31T10:28:30;19.70;;;2.97;;
2225;SDS011;1119;48.288;8.726;2023-08-31T10:31:07;20.00;;;2.93;;
2225;SDS011;1119;48.288;8.726;2023-08-31T10:33:39;19.80;;;2.80;;
2225;SDS011;1119;48.288;8.726;2023-08-31T10:36:14;20.03;;;2.90;;
2225;SDS011;1119;48.288;8.726;2023-08-31T10:38:44;19.97;;;2.90;;
2225;SDS011;1119;48.288;8.726;2023-08-31T10:41:21;19.87;;;2.63;;
2225;SDS011;1119;48.288;8.726;2023-08-31T10:43:51;19.90;;;3.00;;
2225;SDS011;1119;48.288;8.726;2023-08-31T10:46:29;19.70;;;2.73;;
2225;SDS011;1119;48.288;8.726;2023-08-31T10:48:59;20.00;;;3.23;;
2225;SDS011;1119;48.288;8.726;2023-08-31T10:51:29;19.80;;;2.60;;
2225;SDS011;1119;48.288;8.726;2023-08-31T10:54:07;19.90;;;2.80;;
2225;SDS011;1119;48.288;8.726;2023-08-31T10:56:55;20.00;;;3.17;;
2225;SDS011;1119;48.288;8.726;2023-08-31T10:59:48;19.80;;;2.57;;
2225;SDS011;1119;48.288;8.726;2023-08-31T11:02:27;19.87;;;3.17;;
2225;SDS011;1119;48.288;8.726;2023-08-31T11:05:01;20.00;;;3.20;;
2225;SDS011;1119;48.288;8.726;2023-08-31T11:07:33;20.07;;;3.80;;
2225;SDS011;1119;48.288;8.726;2023-08-31T11:10:11;19.80;;;2.80;;
2225;SDS011;1119;48.288;8.726;2023-08-31T11:12:45;20.07;;;3.10;;
2225;SDS011;1119;48.288;8.726;2023-08-31T11:15:14;19.70;;;3.03;;
2225;SDS011;1119;48.288;8.726;2023-08-31T11:17:43;20.00;;;3.20;;
2225;SDS011;1119;48.288;8.726;2023-08-31T11:20:15;19.80;;;2.60;;
2225;SDS011;1119;48.288;8.726;2023-08-31T11:22:45;19.90;;;3.00;;
2225;SDS011;1119;48.288;8.726;2023-08-31T11:25:15;20.03;;;3.10;;
2225;SDS011;1119;48.288;8.726;2023-08-31T11:27:53;20.07;;;3.40;;
2225;SDS011;1119;48.288;8.726;2023-08-31T11:30:21;20.10;;;3.07;;
2225;SDS011;1119;48.288;8.726;2023-08-31T11:32:50;20.00;;;3.10;;
2225;SDS011;1119;48.288;8.726;2023-08-31T11:35:18;19.80;;;2.87;;
2225;SDS011;1119;48.288;8.726;2023-08-31T11:37:48;19.90;;;3.10;;
2225;SDS011;1119;48.288;8.726;2023-08-31T11:40:18;19.80;;;2.93;;
2225;SDS011;1119;48.288;8.726;2023-08-31T11:42:45;19.80;;;2.80;;
2225;SDS011;1119;48.288;8.726;2023-08-31T11:45:15;19.83;;;2.97;;
2225;SDS011;1119;48.288;8.726;2023-08-31T11:47:44;19.90;;;2.80;;
2225;SDS011;1119;48.288;8.726;2023-08-31T11:50:12;19.93;;;3.00;;
2225;SDS011;1119;48.288;8.726;2023-08-31T11:52:41;20.03;;;3.10;;
2225;SDS011;1119;48.288;8.726;2023-08-31T11:55:10;19.80;;;2.80;;
2225;SDS011;1119;48.288;8.726;2023-08-31T11:57:38;19.90;;;3.07;;
2225;SDS011;1119;48.288;8.726;2023-08-31T12:00:06;19.90;;;3.07;;
2225;SDS011;1119;48.288;8.726;2023-08-31T12:02:37;19.87;;;3.10;;
2225;SDS011;1119;48.288;8.726;2023-08-31T12:05:05;20.07;;;3.30;;
2225;SDS011;1119;48.288;8.726;2023-08-31T12:07:38;20.00;;;3.20;;
2225;SDS011;1119;48.288;8.726;2023-08-31T12:10:07;19.70;;;2.30;;
2225;SDS011;1119;48.288;8.726;2023-08-31T12:12:35;19.87;;;3.10;;
2225;SDS011;1119;48.288;8.726;2023-08-31T12:15:03;19.77;;;2.83;;
2225;SDS011;1119;48.288;8.726;2023-08-31T12:17:37;19.77;;;3.03;;
2225;SDS011;1119;48.288;8.726;2023-08-31T12:20:06;19.63;;;2.97;;
2225;SDS011;1119;48.288;8.726;2023-08-31T12:22:35;19.87;;;2.90;;
2225;SDS011;1119;48.288;8.726;2023-08-31T12:25:03;19.87;;;3.10;;
2225;SDS011;1119;48.288;8.726;2023-08-31T12:27:31;19.73;;;2.67;;
2225;SDS011;1119;48.288;8.726;2023-08-31T12:29:58;19.70;;;2.87;;
2225;SDS011;1119;48.288;8.726;2023-08-31T12:32:25;19.70;;;2.83;;
2225;SDS011;1119;48.288;8.726;2023-08-31T12:34:54;19.87;;;3.00;;
2225;SDS011;1119;48.288;8.726;2023-08-31T12:37:21;19.60;;;2.63;;
2225;SDS011;1119;48.288;8.726;2023-08-31T12:39:49;19.90;;;3.03;;
2225;SDS011;1119;48.288;8.726;2023-08-31T12:42:16;19.87;;;2.80;;
2225;SDS011;1119;48.288;8.726;2023-08-31T12:44:44;19.80;;;2.90;;
2225;SDS011;1119;48.288;8.726;2023-08-31T12:47:11;19.80;;;2.60;;
2225;SDS011;1119;48.288;8.726;2023-08-31T12:49:38;19.77;;;2.80;;
2225;SDS011;1119;48.288;8.726;2023-08-31T12:52:07;19.80;;;2.63;;
2225;SDS011;1119;48.288;8.726;2023-08-31T12:54:34;19.87;;;2.90;;
2225;SDS011;1119;48.288;8.726;2023-08-31T12:57:02;19.83;;;2.73;;
2225;SDS011;1119;48.288;8.726;2023-08-31T12:59:30;19.77;;;2.70;;
2225;SDS011;1119;48.288;8.726;2023-08-31T13:01:57;19.70;;;2.70;;
2225;SDS011;1119;48.288;8.726;2023-08-31T13:04:25;19.70;;;2.77;;
2225;SDS011;1119;48.288;8.726;2023-08-31T13:06:54;19.70;;;2.87;;
2225;SDS011;1119;48.288;8.726;2023-08-31T13:09:23;19.80;;;2.80;;
2225;SDS011;1119;48.288;8.726;2023-08-31T13:11:50;19.83;;;3.27;;
2225;SDS011;1119;48.288;8.726;2023-08-31T13:14:18;19.80;;;2.87;;
2225;SDS011;1119;48.288;8.726;2023-08-31T13:16:45;19.73;;;2.77;;
2225;SDS011;1119;48.288;8.726;2023-08-31T13:19:12;19.90;;;3.10;;
2225;SDS011;1119;48.288;8.726;2023-08-31T13:21:40;19.77;;;2.90;;
2225;SDS011;1119;48.288;8.726;2023-08-31T13:24:08;19.73;;;2.50;;
2225;SDS011;1119;48.288;8.726;2023-08-31T13:26:36;19.83;;;2.90;;
2225;SDS011;1119;48.288;8.726;2023-08-31T13:29:04;19.97;;;3.20;;
2225;SDS011;1119;48.288;8.726;2023-08-31T13:31:31;19.77;;;2.80;;
2225;SDS011;1119;48.288;8.726;2023-08-31T13:33:59;19.70;;;2.70;;
2225;SDS011;1119;48.288;8.726;2023-08-31T13:36:27;19.70;;;2.97;;
2225;SDS011;1119;48.288;8.726;2023-08-31T13:38:54;19.80;;;3.00;;
2225;SDS011;1119;48.288;8.726;2023-08-31T13:41:22;19.70;;;2.47;;
2225;SDS011;1119;48.288;8.726;2023-08-31T13:43:50;19.70;;;2.80;;
2225;SDS011;1119;48.288;8.726;2023-08-31T13:46:18;19.80;;;2.70;;
2225;SDS011;1119;48.288;8.726;2023-08-31T13:48:45;19.77;;;2.90;;
2225;SDS011;1119;48.288;8.726;2023-08-31T13:51:13;19.80;;;2.80;;
2225;SDS011;1119;48.288;8.726;2023-08-31T13:53:41;19.80;;;3.00;;
2225;SDS011;1119;48.288;8.726;2023-08-31T13:56:08;19.80;;;3.10;;
2225;SDS011;1119;48.288;8.726;2023-08-31T13:58:35;19.87;;;2.70;;
2225;SDS011;1119;48.288;8.726;2023-08-31T14:01:04;19.80;;;2.80;;
2225;SDS011;1119;48.288;8.726;2023-08-31T14:03:31;19.77;;;3.00;;
2225;SDS011;1119;48.288;8.726;2023-08-31T14:05:59;19.77;;;3.17;;
2225;SDS011;1119;48.288;8.726;2023-08-31T14:08:26;19.80;;;2.90;;
2225;SDS011;1119;48.288;8.726;2023-08-31T14:10:53;19.80;;;3.03;;
2225;SDS011;1119;48.288;8.726;2023-08-31T14:13:21;19.83;;;3.13;;
2225;SDS011;1119;48.288;8.726;2023-08-31T14:15:48;19.77;;;3.10;;
2225;SDS011;1119;48.288;8.726;2023-08-31T14:18:17;19.60;;;2.70;;
2225;SDS011;1119;48.288;8.726;2023-08-31T14:20:44;19.70;;;2.80;;
2225;SDS011;1119;48.288;8.726;2023-08-31T14:23:12;19.70;;;3.13;;
2225;SDS011;1119;48.288;8.726;2023-08-31T14:25:39;19.50;;;3.07;;
2225;SDS011;1119;48.288;8.726;2023-08-31T14:28:06;19.70;;;3.40;;
2225;SDS011;1119;48.288;8.726;2023-08-31T14:30:35;19.83;;;3.07;;
2225;SDS011;1119;48.288;8.726;2023-08-31T14:33:03;19.77;;;3.07;;
2225;SDS011;1119;48.288;8.726;2023-08-31T14:35:32;19.87;;;3.20;;
2225;SDS011;1119;48.288;8.726;2023-08-31T14:38:03;19.60;;;3.10;;
2225;SDS011;1119;48.288;8.726;2023-08-31T14:40:31;19.77;;;3.07;;
2225;SDS011;1119;48.288;8.726;2023-08-31T14:43:02;19.70;;;3.00;;
2225;SDS011;1119;48.288;8.726;2023-08-31T14:45:30;19.83;;;3.13;;
2225;SDS011;1119;48.288;8.726;2023-08-31T14:47:57;19.60;;;2.70;;
2225;SDS011;1119;48.288;8.726;2023-08-31T14:50:25;19.60;;;2.83;;
2225;SDS011;1119;48.288;8.726;2023-08-31T14:52:54;19.83;;;3.00;;
2225;SDS011;1119;48.288;8.726;2023-08-31T14:55:21;19.73;;;2.70;;
2225;SDS011;1119;48.288;8.726;2023-08-31T14:57:48;19.77;;;3.00;;
2225;SDS011;1119;48.288;8.726;2023-08-31T15:00:16;19.80;;;2.70;;
2225;SDS011;1119;48.288;8.726;2023-08-31T15:02:46;19.83;;;3.00;;
2225;SDS011;1119;48.288;8.726;2023-08-31T15:05:14;19.87;;;3.10;;
2225;SDS011;1119;48.288;8.726;2023-08-31T15:07:41;19.80;;;3.10;;
2225;SDS011;1119;48.288;8.726;2023-08-31T15:10:10;19.80;;;3.17;;
2225;SDS011;1119;48.288;8.726;2023-08-31T15:12:37;19.80;;;3.13;;
2225;SDS011;1119;48.288;8.726;2023-08-31T15:15:05;19.80;;;3.40;;